Time;durP1;ratioP1;P1;durP2;ratioP2;P2;SDS_P1;SDS_P2;PMS_P1;PMS_P2;Temp;Humidity;BMP_temperature;BMP_pressure;BME280_temperature;BME280_humidity;BME280_pressure;Samples;Min_cycle;Max_cycle;Signal;HPM_P1;HPM_P2
2024/02/23 00:01:03;;;;;;;0.30;0.10;;;;;;;;;;5026261;28;20140;-78
2024/02/23 00:03:30;;;;;;;0.15;0.10;;;;;;;;;;5012558;28;20042;-79
2024/02/23 00:05:57;;;;;;;1.75;0.10;;;;;;;;;;5012795;28;20121;-78
2024/02/23 00:08:24;;;;;;;0.55;0.13;;;;;;;;;;5029578;28;20578;-78
2024/02/23 00:10:51;;;;;;;1.27;0.57;;;;;;;;;;5012716;28;20150;-79
2024/02/23 00:13:18;;;;;;;1.48;0.20;;;;;;;;;;5029144;28;20105;-78
2024/02/23 00:15:44;;;;;;;0.35;0.10;;;;;;;;;;4998126;28;20132;-75
2024/02/23 00:18:13;;;;;;;0.80;0.25;;;;;;;;;;5006156;28;20069;-76
2024/02/23 00:20:39;;;;;;;0.45;0.40;;;;;;;;;;5033997;28;20084;-77
2024/02/23 00:23:06;;;;;;;0.13;0.08;;;;;;;;;;5041260;28;20065;-77
2024/02/23 00:25:32;;;;;;;1.17;0.10;;;;;;;;;;5017259;28;20051;-77
2024/02/23 00:27:59;;;;;;;1.10;0.10;;;;;;;;;;5010905;28;21365;-77
2024/02/23 00:30:27;;;;;;;0.80;0.20;;;;;;;;;;5015412;28;20412;-77
2024/02/23 00:32:53;;;;;;;0.30;0.10;;;;;;;;;;4998479;28;20057;-77
2024/02/23 00:35:20;;;;;;;1.13;0.22;;;;;;;;;;5028956;28;20440;-77
2024/02/23 00:37:47;;;;;;;0.45;0.10;;;;;;;;;;5011991;28;20111;-77
2024/02/23 00:40:13;;;;;;;0.85;0.43;;;;;;;;;;5014042;28;20049;-77
2024/02/23 00:42:40;;;;;;;0.30;0.20;;;;;;;;;;5012490;28;20069;-77
2024/02/23 00:45:07;;;;;;;0.22;0.10;;;;;;;;;;5027928;28;20487;-77
2024/02/23 00:47:35;;;;;;;1.80;0.20;;;;;;;;;;4992625;28;20050;-77
2024/02/23 00:50:02;;;;;;;0.40;0.38;;;;;;;;;;5008463;28;20332;-77
2024/02/23 00:52:28;;;;;;;0.52;0.10;;;;;;;;;;5028145;28;20120;-80
2024/02/23 00:54:55;;;;;;;1.20;0.45;;;;;;;;;;4998101;28;20065;-78
2024/02/23 00:57:27;;;;;;;0.65;0.10;;;;;;;;;;5029690;28;20058;-78
2024/02/23 00:59:54;;;;;;;2.30;0.20;;;;;;;;;;5014826;28;20060;-78
2024/02/23 01:02:20;;;;;;;0.95;0.20;;;;;;;;;;5013608;28;20046;-78
2024/02/23 01:04:47;;;;;;;2.08;0.20;;;;;;;;;;5011999;28;20432;-78
2024/02/23 01:07:14;;;;;;;0.25;0.10;;;;;;;;;;5027095;28;20137;-77
2024/02/23 01:09:40;;;;;;;1.80;0.32;;;;;;;;;;5008982;28;20053;-78
2024/02/23 01:12:07;;;;;;;1.13;0.20;;;;;;;;;;5027664;28;20053;-77
2024/02/23 01:14:34;;;;;;;1.25;0.30;;;;;;;;;;4994591;28;20532;-77
2024/02/23 01:17:00;;;;;;;1.00;0.20;;;;;;;;;;5011233;28;20408;-77
2024/02/23 01:19:27;;;;;;;1.80;0.30;;;;;;;;;;5010705;28;20072;-78
2024/02/23 01:21:59;;;;;;;2.53;0.30;;;;;;;;;;4999877;28;20077;-78
2024/02/23 01:24:30;;;;;;;1.05;0.15;;;;;;;;;;5011781;28;20048;-78
2024/02/23 01:26:57;;;;;;;0.90;0.20;;;;;;;;;;4998927;28;20107;-78
2024/02/23 01:29:25;;;;;;;1.65;0.75;;;;;;;;;;5033275;28;20412;-78
2024/02/23 01:31:54;;;;;;;2.25;0.22;;;;;;;;;;5015870;28;20054;-78
2024/02/23 01:34:21;;;;;;;3.17;0.22;;;;;;;;;;5032795;28;20046;-78
2024/02/23 01:36:48;;;;;;;1.00;0.40;;;;;;;;;;5018550;28;20105;-78
2024/02/23 01:39:15;;;;;;;2.40;0.45;;;;;;;;;;5012405;28;20069;-78
2024/02/23 01:41:43;;;;;;;0.63;0.43;;;;;;;;;;5011382;28;20061;-78
2024/02/23 01:44:10;;;;;;;4.25;0.43;;;;;;;;;;5015459;28;20060;-78
2024/02/23 01:46:37;;;;;;;1.80;0.70;;;;;;;;;;4993944;28;20054;-77
2024/02/23 01:49:04;;;;;;;2.10;0.30;;;;;;;;;;5011524;28;20077;-77
2024/02/23 01:51:31;;;;;;;3.35;0.38;;;;;;;;;;5006402;28;20050;-77
2024/02/23 01:53:58;;;;;;;1.02;0.40;;;;;;;;;;4992716;28;20072;-77
2024/02/23 01:56:24;;;;;;;1.30;0.10;;;;;;;;;;5012735;28;20431;-77
2024/02/23 01:58:51;;;;;;;1.58;0.40;;;;;;;;;;5011021;28;20050;-77
2024/02/23 02:01:18;;;;;;;1.40;0.40;;;;;;;;;;5008947;28;20080;-78
2024/02/23 02:03:45;;;;;;;1.58;0.20;;;;;;;;;;5029835;28;20137;-77
2024/02/23 02:06:12;;;;;;;0.95;0.28;;;;;;;;;;5030448;28;20104;-77
2024/02/23 02:08:39;;;;;;;1.27;0.30;;;;;;;;;;4993437;28;20500;-77
2024/02/23 02:11:05;;;;;;;2.00;0.32;;;;;;;;;;4994413;28;20500;-77
2024/02/23 02:13:32;;;;;;;0.38;0.10;;;;;;;;;;4998494;28;20081;-77
2024/02/23 02:15:59;;;;;;;1.70;0.40;;;;;;;;;;4994719;28;20050;-77
2024/02/23 02:18:26;;;;;;;0.90;0.20;;;;;;;;;;5010036;28;20085;-77
2024/02/23 02:20:57;;;;;;;2.80;0.38;;;;;;;;;;5010360;28;20064;-77
2024/02/23 02:23:24;;;;;;;1.10;0.68;;;;;;;;;;5009907;28;20049;-77
2024/02/23 02:25:57;;;;;;;1.70;0.32;;;;;;;;;;4993998;28;20053;-77
2024/02/23 02:28:24;;;;;;;1.65;0.40;;;;;;;;;;4996671;28;20120;-77
2024/02/23 02:30:51;;;;;;;2.95;0.30;;;;;;;;;;4992247;28;20053;-77
2024/02/23 02:33:18;;;;;;;1.92;0.30;;;;;;;;;;4993649;28;20080;-77
2024/02/23 02:35:44;;;;;;;3.10;0.30;;;;;;;;;;4990821;28;20131;-77
2024/02/23 02:38:11;;;;;;;1.20;0.20;;;;;;;;;;5024744;28;20140;-77
2024/02/23 02:40:38;;;;;;;2.33;0.45;;;;;;;;;;5008556;28;20562;-77
2024/02/23 02:43:05;;;;;;;1.75;0.40;;;;;;;;;;5025463;28;20061;-77
2024/02/23 02:45:32;;;;;;;0.98;0.68;;;;;;;;;;5001411;28;20089;-77
2024/02/23 02:51:26;;;;;;;0.32;0.30;;;;;;;;;;5014296;28;20096;-77
2024/02/23 02:53:53;;;;;;;1.17;0.20;;;;;;;;;;5010904;28;20077;-77
2024/02/23 02:56:20;;;;;;;1.92;0.30;;;;;;;;;;4994799;28;20088;-78
2024/02/23 02:58:46;;;;;;;1.42;0.57;;;;;;;;;;5011045;28;20104;-79
2024/02/23 03:01:13;;;;;;;2.42;0.35;;;;;;;;;;5010298;28;20133;-79
2024/02/23 03:03:40;;;;;;;1.98;0.40;;;;;;;;;;4995200;28;20052;-78
2024/02/23 03:06:07;;;;;;;1.35;0.30;;;;;;;;;;5027012;28;20046;-77
2024/02/23 03:08:33;;;;;;;2.15;0.22;;;;;;;;;;5009578;28;20129;-77
2024/02/23 03:11:00;;;;;;;1.17;0.40;;;;;;;;;;4989414;28;20115;-77
2024/02/23 03:13:27;;;;;;;1.45;0.38;;;;;;;;;;5010550;28;20508;-77
2024/02/23 03:15:53;;;;;;;2.03;0.40;;;;;;;;;;4992295;28;20101;-77
2024/02/23 03:18:20;;;;;;;1.42;0.30;;;;;;;;;;4992400;28;20445;-77
2024/02/23 03:20:47;;;;;;;0.25;0.20;;;;;;;;;;5021826;28;20058;-76
2024/02/23 03:23:14;;;;;;;1.27;0.43;;;;;;;;;;5020963;28;20060;-76
2024/02/23 03:25:40;;;;;;;1.88;0.63;;;;;;;;;;5015664;28;20054;-77
2024/02/23 03:28:07;;;;;;;2.88;0.50;;;;;;;;;;5024555;28;20184;-77
2024/02/23 03:30:33;;;;;;;3.50;0.68;;;;;;;;;;4991338;28;20077;-77
2024/02/23 03:33:02;;;;;;;0.85;0.30;;;;;;;;;;5008200;28;20046;-77
2024/02/23 03:35:29;;;;;;;1.80;0.57;;;;;;;;;;5012951;28;20125;-77
2024/02/23 03:37:56;;;;;;;1.98;0.40;;;;;;;;;;4997535;28;20058;-76
2024/02/23 03:40:22;;;;;;;4.88;0.52;;;;;;;;;;5011847;28;20160;-77
2024/02/23 03:42:49;;;;;;;1.60;0.22;;;;;;;;;;5009682;28;20651;-76
2024/02/23 03:45:16;;;;;;;0.60;0.40;;;;;;;;;;5012815;28;20136;-77
2024/02/23 03:47:42;;;;;;;1.60;0.60;;;;;;;;;;5013604;28;20050;-77
2024/02/23 03:50:10;;;;;;;1.55;0.43;;;;;;;;;;5030577;28;20092;-78
2024/02/23 03:52:36;;;;;;;2.78;0.73;;;;;;;;;;5011430;28;20050;-78
2024/02/23 03:55:03;;;;;;;2.85;0.40;;;;;;;;;;5014641;28;20093;-78
2024/02/23 03:57:30;;;;;;;0.90;0.20;;;;;;;;;;5013106;28;20046;-78
2024/02/23 03:59:57;;;;;;;0.68;0.30;;;;;;;;;;5017108;28;20579;-78
2024/02/23 04:02:24;;;;;;;2.67;0.38;;;;;;;;;;5015347;28;20128;-78
2024/02/23 04:04:50;;;;;;;0.73;0.60;;;;;;;;;;5014194;28;20057;-77
2024/02/23 04:07:17;;;;;;;3.20;0.50;;;;;;;;;;5014069;28;20077;-78
2024/02/23 04:09:44;;;;;;;1.50;0.30;;;;;;;;;;5013492;28;20090;-78
2024/02/23 04:12:10;;;;;;;2.47;0.15;;;;;;;;;;5016741;28;20113;-78
2024/02/23 04:14:37;;;;;;;2.20;0.17;;;;;;;;;;5009163;28;20053;-78
2024/02/23 04:17:04;;;;;;;0.85;0.40;;;;;;;;;;5013005;28;20054;-77
2024/02/23 04:19:30;;;;;;;0.90;0.45;;;;;;;;;;4989271;28;20492;-79
2024/02/23 04:21:57;;;;;;;1.17;0.17;;;;;;;;;;5021280;28;20058;-79
2024/02/23 04:24:24;;;;;;;1.42;0.32;;;;;;;;;;5034626;28;20108;-78
2024/02/23 04:26:52;;;;;;;0.93;0.35;;;;;;;;;;5016398;28;20062;-78
2024/02/23 04:29:19;;;;;;;0.20;0.20;;;;;;;;;;5010976;28;20132;-78
2024/02/23 04:31:45;;;;;;;0.80;0.25;;;;;;;;;;5012787;28;20056;-79
2024/02/23 04:34:12;;;;;;;1.65;0.45;;;;;;;;;;5012962;28;20099;-79
2024/02/23 04:36:38;;;;;;;1.10;0.30;;;;;;;;;;4993649;28;20470;-78
2024/02/23 04:39:05;;;;;;;3.88;0.40;;;;;;;;;;5006278;28;20042;-77
2024/02/23 04:41:32;;;;;;;0.63;0.25;;;;;;;;;;5006759;28;20097;-78
2024/02/23 04:44:00;;;;;;;2.40;0.50;;;;;;;;;;4995787;28;20135;-78
2024/02/23 04:46:29;;;;;;;3.72;0.57;;;;;;;;;;4996401;28;20068;-77
2024/02/23 04:48:56;;;;;;;2.50;0.38;;;;;;;;;;4997196;28;20058;-77
2024/02/23 04:51:23;;;;;;;0.90;0.25;;;;;;;;;;5027401;28;20129;-77
2024/02/23 04:53:49;;;;;;;0.47;0.40;;;;;;;;;;4993509;28;20108;-77
2024/02/23 04:56:16;;;;;;;0.85;0.50;;;;;;;;;;4995578;28;20137;-77
2024/02/23 04:58:45;;;;;;;1.67;0.40;;;;;;;;;;5008324;28;20077;-79
2024/02/23 05:01:12;;;;;;;0.88;0.40;;;;;;;;;;4997946;28;20081;-79
2024/02/23 05:03:39;;;;;;;2.20;0.43;;;;;;;;;;4996286;28;20053;-79
2024/02/23 05:06:06;;;;;;;2.60;0.60;;;;;;;;;;4994838;28;20137;-80
2024/02/23 05:08:32;;;;;;;0.95;0.47;;;;;;;;;;5012101;28;20049;-79
2024/02/23 05:10:59;;;;;;;1.58;0.60;;;;;;;;;;4995473;28;20066;-79
2024/02/23 05:13:26;;;;;;;0.60;0.45;;;;;;;;;;5015503;28;20112;-78
2024/02/23 05:15:55;;;;;;;2.42;0.55;;;;;;;;;;5020237;28;20049;-78
2024/02/23 05:18:21;;;;;;;1.20;0.40;;;;;;;;;;4996746;28;20077;-77
2024/02/23 05:20:48;;;;;;;3.40;1.67;;;;;;;;;;5014276;28;20492;-78
2024/02/23 05:23:17;;;;;;;1.52;0.90;;;;;;;;;;5027109;28;20053;-78
2024/02/23 05:25:44;;;;;;;3.70;1.00;;;;;;;;;;5017540;28;20464;-79
2024/02/23 05:28:11;;;;;;;1.95;1.30;;;;;;;;;;5011427;28;20451;-79
2024/02/23 05:30:37;;;;;;;8.10;7.30;;;;;;;;;;5002375;28;20046;-78
2024/02/23 05:33:04;;;;;;;5.18;4.65;;;;;;;;;;5000071;28;20074;-78
2024/02/23 05:35:31;;;;;;;2.78;1.45;;;;;;;;;;5016644;28;20183;-79
2024/02/23 05:37:58;;;;;;;1.63;0.70;;;;;;;;;;5030670;28;20046;-77
2024/02/23 05:40:25;;;;;;;1.83;0.55;;;;;;;;;;5032317;28;20045;-77
2024/02/23 05:42:52;;;;;;;2.63;0.60;;;;;;;;;;4997471;28;20564;-77
2024/02/23 05:45:19;;;;;;;2.05;0.52;;;;;;;;;;5014865;28;20558;-78
2024/02/23 05:47:45;;;;;;;1.10;0.52;;;;;;;;;;4994309;28;20144;-77
2024/02/23 05:50:14;;;;;;;3.47;0.40;;;;;;;;;;5029246;28;20049;-78
2024/02/23 05:52:41;;;;;;;2.00;0.30;;;;;;;;;;5010942;28;20054;-78
2024/02/23 05:55:07;;;;;;;3.00;0.35;;;;;;;;;;4995631;28;20160;-79
2024/02/23 05:57:34;;;;;;;3.88;0.77;;;;;;;;;;5012186;28;20066;-79
2024/02/23 06:00:01;;;;;;;1.45;0.40;;;;;;;;;;5052574;28;20037;-79
2024/02/23 06:02:28;;;;;;;2.28;0.45;;;;;;;;;;5053192;28;20034;-82
2024/02/23 06:04:55;;;;;;;1.77;0.57;;;;;;;;;;5031337;28;20033;-75
2024/02/23 06:07:28;;;;;;;2.67;0.40;;;;;;;;;;5019004;28;20042;-74
2024/02/23 06:09:56;;;;;;;2.95;0.68;;;;;;;;;;5031620;28;20076;-74
2024/02/23 06:12:24;;;;;;;3.83;0.90;;;;;;;;;;5030968;28;20050;-74
2024/02/23 06:14:51;;;;;;;1.02;0.30;;;;;;;;;;5012600;28;20061;-75
2024/02/23 06:17:18;;;;;;;4.55;0.57;;;;;;;;;;5029838;28;20049;-75
2024/02/23 06:19:44;;;;;;;2.10;0.45;;;;;;;;;;5027988;28;20424;-75
2024/02/23 06:22:16;;;;;;;1.77;0.40;;;;;;;;;;5033175;28;20054;-75
2024/02/23 06:24:55;;;;;;;0.90;0.73;;;;;;;;;;5018289;28;20058;-75
2024/02/23 06:27:22;;;;;;;0.95;0.73;;;;;;;;;;5029396;28;20053;-75
2024/02/23 06:29:49;;;;;;;0.52;0.40;;;;;;;;;;5016408;28;20050;-76
2024/02/23 06:32:16;;;;;;;3.33;0.50;;;;;;;;;;5028360;28;20053;-80
2024/02/23 06:34:42;;;;;;;2.22;0.50;;;;;;;;;;5013254;28;20060;-79
2024/02/23 06:37:09;;;;;;;2.33;0.63;;;;;;;;;;5012775;28;20084;-78
2024/02/23 06:39:36;;;;;;;1.70;0.70;;;;;;;;;;5012674;28;20104;-78
2024/02/23 06:42:04;;;;;;;1.90;0.43;;;;;;;;;;5013766;28;21412;-78
2024/02/23 06:44:31;;;;;;;2.80;0.70;;;;;;;;;;5019608;28;20065;-77
2024/02/23 06:46:57;;;;;;;0.85;0.65;;;;;;;;;;5010674;28;20076;-75
2024/02/23 06:49:24;;;;;;;3.42;0.63;;;;;;;;;;5010455;28;20057;-75
2024/02/23 06:51:51;;;;;;;2.28;0.75;;;;;;;;;;4993788;28;20054;-78
2024/02/23 06:54:17;;;;;;;3.47;0.60;;;;;;;;;;5010297;28;20078;-76
2024/02/23 06:56:45;;;;;;;1.33;0.60;;;;;;;;;;5010842;28;20129;-79
2024/02/23 06:59:12;;;;;;;1.52;0.50;;;;;;;;;;5008924;28;20053;-76
2024/02/23 07:01:49;;;;;;;1.42;0.98;;;;;;;;;;5008585;28;20065;-75
2024/02/23 07:04:16;;;;;;;9.88;1.73;;;;;;;;;;5008473;28;20089;-75
2024/02/23 07:06:42;;;;;;;4.05;1.60;;;;;;;;;;5024975;28;20119;-74
2024/02/23 07:09:11;;;;;;;2.78;1.48;;;;;;;;;;5008267;28;20058;-73
2024/02/23 07:11:38;;;;;;;4.57;0.80;;;;;;;;;;5008060;28;20053;-75
2024/02/23 07:14:05;;;;;;;0.93;0.52;;;;;;;;;;4991033;28;20054;-74
2024/02/23 07:16:32;;;;;;;3.10;0.80;;;;;;;;;;5020408;28;20056;-74
2024/02/23 07:18:59;;;;;;;1.88;1.00;;;;;;;;;;4992441;28;20513;-74
2024/02/23 07:21:26;;;;;;;5.38;2.38;;;;;;;;;;5011586;28;20057;-75
2024/02/23 07:23:52;;;;;;;2.38;0.73;;;;;;;;;;5011811;28;20050;-75
2024/02/23 07:26:22;;;;;;;4.10;0.90;;;;;;;;;;5012069;28;20580;-76
2024/02/23 07:28:49;;;;;;;5.00;1.02;;;;;;;;;;4996287;28;20132;-72
2024/02/23 07:31:15;;;;;;;1.85;1.00;;;;;;;;;;5028806;28;20500;-76
2024/02/23 07:33:42;;;;;;;3.08;1.20;;;;;;;;;;4989511;28;20081;-77
2024/02/23 07:36:16;;;;;;;5.22;1.45;;;;;;;;;;4995875;28;20060;-77
2024/02/23 07:38:44;;;;;;;5.80;2.92;;;;;;;;;;5012605;28;20361;-77
2024/02/23 07:41:14;;;;;;;5.68;2.20;;;;;;;;;;5012670;28;20089;-76
2024/02/23 07:43:41;;;;;;;3.60;1.38;;;;;;;;;;5013389;28;20389;-77
2024/02/23 07:46:08;;;;;;;4.03;1.73;;;;;;;;;;5013108;28;20045;-74
2024/02/23 07:48:35;;;;;;;4.75;1.10;;;;;;;;;;5012947;28;20133;-74
2024/02/23 07:51:03;;;;;;;4.22;1.88;;;;;;;;;;5013230;28;20104;-74
2024/02/23 07:53:29;;;;;;;3.55;1.50;;;;;;;;;;4996801;28;20058;-75
2024/02/23 07:55:59;;;;;;;6.57;1.35;;;;;;;;;;5015259;28;20125;-78
2024/02/23 07:58:28;;;;;;;4.20;0.75;;;;;;;;;;4995587;28;20235;-77
2024/02/23 08:00:55;;;;;;;3.38;0.90;;;;;;;;;;5013950;28;20050;-77
2024/02/23 08:03:22;;;;;;;2.22;1.00;;;;;;;;;;5013488;28;20053;-75
2024/02/23 08:05:48;;;;;;;2.60;1.00;;;;;;;;;;5029777;28;20507;-77
2024/02/23 08:08:15;;;;;;;3.80;1.10;;;;;;;;;;4999943;28;20073;-81
2024/02/23 08:10:42;;;;;;;3.47;1.42;;;;;;;;;;5018807;28;20081;-80
2024/02/23 08:13:10;;;;;;;3.63;0.93;;;;;;;;;;4997879;28;20109;-80
2024/02/23 08:15:37;;;;;;;1.48;0.70;;;;;;;;;;5012725;28;20108;-76
2024/02/23 08:18:04;;;;;;;2.20;0.90;;;;;;;;;;5011409;28;20520;-77
2024/02/23 08:20:30;;;;;;;3.85;1.17;;;;;;;;;;5025505;28;20053;-77
2024/02/23 08:22:57;;;;;;;2.75;0.95;;;;;;;;;;5011354;28;20320;-77
2024/02/23 08:25:24;;;;;;;3.35;0.80;;;;;;;;;;5009211;28;20067;-77
2024/02/23 08:27:51;;;;;;;2.63;1.30;;;;;;;;;;5012132;28;20092;-77
2024/02/23 08:30:20;;;;;;;4.57;1.00;;;;;;;;;;5005257;28;20558;-78
2024/02/23 08:32:46;;;;;;;2.65;1.10;;;;;;;;;;5012615;28;20050;-77
2024/02/23 08:35:15;;;;;;;3.80;0.90;;;;;;;;;;4995313;28;20054;-76
2024/02/23 08:37:42;;;;;;;4.30;0.93;;;;;;;;;;4991761;28;20060;-77
2024/02/23 08:40:09;;;;;;;5.22;1.00;;;;;;;;;;4993603;28;20057;-77
2024/02/23 08:42:36;;;;;;;1.85;0.80;;;;;;;;;;5007397;28;20495;-75
2024/02/23 08:45:03;;;;;;;3.55;1.42;;;;;;;;;;5012033;28;20050;-77
2024/02/23 08:47:32;;;;;;;3.25;0.90;;;;;;;;;;5008882;28;20062;-77
2024/02/23 08:49:59;;;;;;;2.75;0.70;;;;;;;;;;5012091;28;20133;-77
2024/02/23 08:52:26;;;;;;;1.65;0.70;;;;;;;;;;5014241;28;20053;-77
2024/02/23 08:54:52;;;;;;;0.63;0.60;;;;;;;;;;5015034;28;20156;-77
2024/02/23 08:57:19;;;;;;;0.98;0.75;;;;;;;;;;5014333;28;20089;-77
2024/02/23 08:59:47;;;;;;;3.13;1.20;;;;;;;;;;5009621;28;20113;-77
2024/02/23 09:02:14;;;;;;;4.40;0.80;;;;;;;;;;5014475;28;20060;-77
2024/02/23 09:04:40;;;;;;;2.72;0.60;;;;;;;;;;5014031;28;20054;-78
2024/02/23 09:07:07;;;;;;;3.47;0.70;;;;;;;;;;5000164;28;20077;-77
2024/02/23 09:09:34;;;;;;;1.75;0.47;;;;;;;;;;5012908;28;20501;-78
2024/02/23 09:12:01;;;;;;;2.17;1.10;;;;;;;;;;5012393;28;20049;-78
2024/02/23 09:14:28;;;;;;;4.22;0.70;;;;;;;;;;5012760;28;20412;-78
2024/02/23 09:16:54;;;;;;;1.40;0.55;;;;;;;;;;5019934;28;20074;-79
2024/02/23 09:19:21;;;;;;;3.30;0.80;;;;;;;;;;4999024;28;20531;-78
2024/02/23 09:21:47;;;;;;;3.88;0.90;;;;;;;;;;5000209;28;20480;-78
2024/02/23 09:24:14;;;;;;;5.03;0.85;;;;;;;;;;5015784;28;20502;-78
2024/02/23 09:26:41;;;;;;;3.28;0.47;;;;;;;;;;5000381;28;20076;-77
2024/02/23 09:29:07;;;;;;;4.72;0.70;;;;;;;;;;5016465;28;20054;-78
2024/02/23 09:31:34;;;;;;;2.20;0.80;;;;;;;;;;5017683;28;20050;-78
2024/02/23 09:34:01;;;;;;;3.15;1.00;;;;;;;;;;5011324;28;20046;-83
2024/02/23 09:36:30;;;;;;;3.17;1.02;;;;;;;;;;5020051;28;20042;-79
2024/02/23 09:38:56;;;;;;;2.10;0.75;;;;;;;;;;5013972;28;20049;-78
2024/02/23 09:41:23;;;;;;;2.28;0.60;;;;;;;;;;5013287;28;20062;-75
2024/02/23 09:43:50;;;;;;;5.03;1.00;;;;;;;;;;5013242;28;20054;-77
2024/02/23 09:46:17;;;;;;;3.88;0.85;;;;;;;;;;5005271;28;20053;-78
2024/02/23 09:48:44;;;;;;;3.33;0.40;;;;;;;;;;5010922;28;20490;-77
2024/02/23 09:51:12;;;;;;;2.60;0.70;;;;;;;;;;4984156;28;20117;-78
2024/02/23 09:53:39;;;;;;;2.92;0.60;;;;;;;;;;4997484;28;20073;-78
2024/02/23 09:56:07;;;;;;;3.70;0.70;;;;;;;;;;4998881;28;20053;-78
2024/02/23 09:58:34;;;;;;;1.13;0.40;;;;;;;;;;4993901;28;20046;-78
2024/02/23 10:01:04;;;;;;;0.70;0.40;;;;;;;;;;4992459;28;20058;-78
2024/02/23 10:03:31;;;;;;;3.65;0.70;;;;;;;;;;5026571;28;20088;-77
2024/02/23 10:05:58;;;;;;;3.17;1.00;;;;;;;;;;5007823;28;20054;-78
2024/02/23 10:08:26;;;;;;;1.80;0.70;;;;;;;;;;5010105;28;20405;-78
2024/02/23 10:10:53;;;;;;;1.33;0.65;;;;;;;;;;5007237;28;20054;-77
2024/02/23 10:13:26;;;;;;;1.48;0.68;;;;;;;;;;4991589;28;20042;-77
2024/02/23 10:15:53;;;;;;;2.78;0.80;;;;;;;;;;5011184;28;20524;-77
2024/02/23 10:18:40;;;;;;;1.55;1.00;;;;;;;;;;5010661;28;20057;-77
2024/02/23 10:21:07;;;;;;;3.15;0.80;;;;;;;;;;5009644;28;20050;-77
2024/02/23 10:23:34;;;;;;;3.72;0.80;;;;;;;;;;5009672;28;20100;-77
2024/02/23 10:26:06;;;;;;;10.35;1.23;;;;;;;;;;5010111;28;20053;-77
2024/02/23 10:28:34;;;;;;;5.07;0.88;;;;;;;;;;4993169;28;20060;-77
2024/02/23 10:31:02;;;;;;;1.02;0.73;;;;;;;;;;5007192;28;20132;-78
2024/02/23 10:33:28;;;;;;;4.38;0.70;;;;;;;;;;5005673;28;20542;-77
2024/02/23 10:36:01;;;;;;;2.78;0.60;;;;;;;;;;5025939;28;20531;-77
2024/02/23 10:38:28;;;;;;;0.73;0.50;;;;;;;;;;4993846;28;20042;-78
2024/02/23 10:40:56;;;;;;;3.83;0.82;;;;;;;;;;5010706;28;20054;-78
2024/02/23 10:43:26;;;;;;;3.95;0.68;;;;;;;;;;4990864;28;20353;-78
2024/02/23 10:45:52;;;;;;;3.08;0.60;;;;;;;;;;4994887;28;20096;-78
2024/02/23 10:48:19;;;;;;;3.80;0.85;;;;;;;;;;5009808;28;20085;-77
2024/02/23 10:50:46;;;;;;;4.75;0.73;;;;;;;;;;4988466;28;20053;-77
2024/02/23 10:53:13;;;;;;;5.05;0.77;;;;;;;;;;5008192;28;20054;-77
2024/02/23 10:55:39;;;;;;;3.92;0.73;;;;;;;;;;4993177;28;20052;-77
2024/02/23 10:58:08;;;;;;;3.45;0.63;;;;;;;;;;4993044;28;20449;-77
2024/02/23 11:00:35;;;;;;;4.70;0.57;;;;;;;;;;4991669;28;20112;-76
2024/02/23 11:03:03;;;;;;;2.80;0.88;;;;;;;;;;4988631;28;20062;-76
2024/02/23 11:05:30;;;;;;;3.55;1.02;;;;;;;;;;5009171;28;20061;-77
2024/02/23 11:07:57;;;;;;;3.72;0.60;;;;;;;;;;5007720;28;20065;-77
2024/02/23 11:10:28;;;;;;;4.65;0.90;;;;;;;;;;4992337;28;20056;-76
2024/02/23 11:13:01;;;;;;;1.00;0.55;;;;;;;;;;5008383;28;20129;-77
2024/02/23 11:15:28;;;;;;;2.17;0.52;;;;;;;;;;4992448;28;20088;-77
2024/02/23 11:17:55;;;;;;;5.13;0.90;;;;;;;;;;4991306;28;20046;-77
2024/02/23 11:20:26;;;;;;;2.72;1.02;;;;;;;;;;5008989;28;20112;-77
2024/02/23 11:22:57;;;;;;;1.38;0.60;;;;;;;;;;5009277;28;20058;-77
2024/02/23 11:25:29;;;;;;;6.20;1.33;;;;;;;;;;4986363;28;20404;-77
2024/02/23 11:27:56;;;;;;;3.30;1.15;;;;;;;;;;5001138;28;20098;-77
2024/02/23 11:30:23;;;;;;;5.50;1.73;;;;;;;;;;5005547;28;20058;-75
2024/02/23 11:32:54;;;;;;;4.45;1.05;;;;;;;;;;5006594;28;20068;-77
2024/02/23 11:35:21;;;;;;;4.05;1.23;;;;;;;;;;5008167;28;20046;-77
2024/02/23 11:37:49;;;;;;;3.85;1.25;;;;;;;;;;5023013;28;20615;-77
2024/02/23 11:40:19;;;;;;;2.25;0.70;;;;;;;;;;4992590;28;20045;-77
2024/02/23 11:42:46;;;;;;;1.83;0.75;;;;;;;;;;5006757;28;20439;-77
2024/02/23 11:45:12;;;;;;;3.88;1.10;;;;;;;;;;5008646;28;20108;-77
2024/02/23 11:47:39;;;;;;;5.00;0.63;;;;;;;;;;5005775;28;20057;-78
2024/02/23 11:50:07;;;;;;;2.33;0.50;;;;;;;;;;5008697;28;20373;-77
2024/02/23 11:52:34;;;;;;;1.02;0.70;;;;;;;;;;5001287;28;20100;-77
2024/02/23 11:55:01;;;;;;;3.80;0.70;;;;;;;;;;5008168;28;20128;-77
2024/02/23 11:57:28;;;;;;;2.08;0.70;;;;;;;;;;5006634;28;20045;-77
2024/02/23 12:00:01;;;;;;;2.33;0.60;;;;;;;;;;5002710;28;20057;-76
2024/02/23 12:02:28;;;;;;;2.50;0.50;;;;;;;;;;4994039;28;20108;-77
2024/02/23 12:04:57;;;;;;;3.38;1.08;;;;;;;;;;4996356;28;20112;-77
2024/02/23 12:07:26;;;;;;;3.85;1.10;;;;;;;;;;4993097;28;20081;-77
2024/02/23 12:09:52;;;;;;;4.82;1.00;;;;;;;;;;5011321;28;20050;-78
2024/02/23 12:12:19;;;;;;;3.63;0.77;;;;;;;;;;4999997;28;20504;-77
2024/02/23 12:14:47;;;;;;;4.10;1.00;;;;;;;;;;5027927;28;20699;-78
2024/02/23 12:17:14;;;;;;;3.22;0.77;;;;;;;;;;4998929;28;20419;-78
2024/02/23 12:19:43;;;;;;;4.32;0.85;;;;;;;;;;5031648;28;20074;-78
2024/02/23 12:22:11;;;;;;;4.53;0.63;;;;;;;;;;4993666;28;20054;-78
2024/02/23 12:24:40;;;;;;;5.70;1.05;;;;;;;;;;4998707;28;20492;-78
2024/02/23 12:27:07;;;;;;;3.15;0.90;;;;;;;;;;5001772;28;20053;-78
2024/02/23 12:29:33;;;;;;;3.40;0.70;;;;;;;;;;5024473;28;20089;-77
2024/02/23 12:32:04;;;;;;;1.38;0.65;;;;;;;;;;5012304;28;20093;-77
2024/02/23 12:34:55;;;;;;;2.13;0.70;;;;;;;;;;5023364;28;20053;-78
2024/02/23 12:37:41;;;;;;;2.42;0.38;;;;;;;;;;4995917;28;20047;-78
2024/02/23 12:40:10;;;;;;;2.05;0.60;;;;;;;;;;5012945;28;20129;-78
2024/02/23 12:42:37;;;;;;;2.40;0.60;;;;;;;;;;5016743;28;20105;-77
2024/02/23 12:45:10;;;;;;;4.43;1.20;;;;;;;;;;5016996;28;20045;-77
2024/02/23 12:47:38;;;;;;;4.05;0.82;;;;;;;;;;5016473;28;20049;-77
2024/02/23 12:50:06;;;;;;;4.47;1.38;;;;;;;;;;5022869;28;20116;-78
2024/02/23 12:52:43;;;;;;;1.80;0.90;;;;;;;;;;5001171;28;20058;-77
2024/02/23 12:55:10;;;;;;;2.20;0.73;;;;;;;;;;4999834;28;20056;-76
2024/02/23 12:57:44;;;;;;;1.60;0.60;;;;;;;;;;5008149;28;20530;-77
2024/02/23 13:00:11;;;;;;;2.47;1.10;;;;;;;;;;5010500;28;20057;-77
2024/02/23 13:02:37;;;;;;;2.85;1.55;;;;;;;;;;4993926;28;20107;-77
2024/02/23 13:05:04;;;;;;;3.05;1.02;;;;;;;;;;4995015;28;20420;-77
2024/02/23 13:07:31;;;;;;;1.90;0.60;;;;;;;;;;5008256;28;20060;-77
2024/02/23 13:09:57;;;;;;;1.30;0.50;;;;;;;;;;5010141;28;20104;-77
2024/02/23 13:12:24;;;;;;;3.92;0.65;;;;;;;;;;4993895;28;20056;-75
2024/02/23 13:14:51;;;;;;;2.33;0.68;;;;;;;;;;5010398;28;20080;-76
2024/02/23 13:17:18;;;;;;;4.32;0.75;;;;;;;;;;4994422;28;20496;-76
2024/02/23 13:19:44;;;;;;;5.90;1.08;;;;;;;;;;4995370;28;20139;-76
2024/02/23 13:22:30;;;;;;;2.17;0.77;;;;;;;;;;5005725;28;20050;-76
2024/02/23 13:24:57;;;;;;;5.13;1.33;;;;;;;;;;5011437;28;20053;-77
2024/02/23 13:27:23;;;;;;;4.05;1.00;;;;;;;;;;5008725;28;20175;-78
2024/02/23 13:29:50;;;;;;;4.70;1.00;;;;;;;;;;5004881;28;20054;-77
2024/02/23 13:32:16;;;;;;;1.60;0.73;;;;;;;;;;5002687;28;20049;-77
2024/02/23 13:34:43;;;;;;;1.60;0.73;;;;;;;;;;5001849;28;20050;-76
2024/02/23 13:37:10;;;;;;;4.32;0.77;;;;;;;;;;5008019;28;20113;-76
2024/02/23 13:39:36;;;;;;;3.95;0.70;;;;;;;;;;5026317;28;20042;-76
2024/02/23 13:42:05;;;;;;;2.97;1.17;;;;;;;;;;5011359;28;20070;-81
2024/02/23 13:44:32;;;;;;;2.45;0.88;;;;;;;;;;4995802;28;20499;-79
2024/02/23 13:46:58;;;;;;;2.72;0.80;;;;;;;;;;5014005;28;20108;-78
2024/02/23 13:49:25;;;;;;;3.08;0.88;;;;;;;;;;4996061;28;20517;-78
2024/02/23 13:51:52;;;;;;;2.08;1.20;;;;;;;;;;5011956;28;20160;-78
2024/02/23 13:54:18;;;;;;;4.53;0.95;;;;;;;;;;5011147;28;20063;-78
2024/02/23 13:56:45;;;;;;;5.38;1.15;;;;;;;;;;5008092;28;20054;-78
2024/02/23 13:59:12;;;;;;;3.97;0.75;;;;;;;;;;5012288;28;20128;-78
2024/02/23 14:01:38;;;;;;;2.85;0.77;;;;;;;;;;4997287;28;20042;-78
2024/02/23 14:04:06;;;;;;;4.72;1.02;;;;;;;;;;5013068;28;20053;-78
2024/02/23 14:06:33;;;;;;;4.25;0.90;;;;;;;;;;5013306;28;20077;-78
2024/02/23 14:09:00;;;;;;;5.00;1.13;;;;;;;;;;5009546;28;20037;-78
2024/02/23 14:11:26;;;;;;;4.85;0.77;;;;;;;;;;4996718;28;20073;-78
2024/02/23 14:13:53;;;;;;;4.28;1.15;;;;;;;;;;5017655;28;20065;-77
2024/02/23 14:16:20;;;;;;;3.75;1.13;;;;;;;;;;5032519;28;20049;-77
2024/02/23 14:18:47;;;;;;;3.28;0.73;;;;;;;;;;5014875;28;20120;-77
2024/02/23 14:21:14;;;;;;;4.22;0.70;;;;;;;;;;5031589;28;20081;-78
2024/02/23 14:23:41;;;;;;;3.80;1.25;;;;;;;;;;5011120;28;20080;-79
2024/02/23 14:26:08;;;;;;;6.55;1.35;;;;;;;;;;5009698;28;20405;-78
2024/02/23 14:28:35;;;;;;;3.97;0.57;;;;;;;;;;5000894;28;20492;-78
2024/02/23 14:31:02;;;;;;;4.13;0.90;;;;;;;;;;5007019;28;20058;-79
2024/02/23 14:33:29;;;;;;;6.50;0.90;;;;;;;;;;4988967;28;20058;-79
2024/02/23 14:35:55;;;;;;;5.32;0.60;;;;;;;;;;5006917;28;20484;-79
2024/02/23 14:38:22;;;;;;;7.32;1.52;;;;;;;;;;5012569;28;20081;-80
2024/02/23 14:40:49;;;;;;;3.97;0.70;;;;;;;;;;4995285;28;20065;-78
2024/02/23 14:43:15;;;;;;;2.70;0.80;;;;;;;;;;5011068;28;20104;-78
2024/02/23 14:45:43;;;;;;;3.60;0.68;;;;;;;;;;4995287;28;20500;-76
2024/02/23 14:48:10;;;;;;;4.20;0.98;;;;;;;;;;5000006;28;20053;-77